Terminal Aerodrome Forecast
Issued by NWS

Home | Current Version | Previous Version | Text Only | Print | Product List | Glossary On
Versions: 1 2 3 4 5 6 7 8 9 10 11 12 13 14 15 16 17 18 19 20 21 22 23 24 25 26 27 28 29 30 31 32 33 34 35 36
000
FTUS43 KPAH 180520
TAFOWB
TAF
KOWB 180520Z 1806/1906 VRB03KT P6SM SCT035 BKN060
      TEMPO 1806/1809 4SM BR
     FM180900 VRB02KT 3SM BR SCT045
      TEMPO 1809/1812 1SM BR
     FM181300 VRB04KT P6SM SKC
     FM181600 29008KT P6SM SCT045
     FM190000 VRB02KT P6SM SCT050 BKN250=

USA.gov is the U.S. government's official web portal to all federal, state and local government web resources and services.